sensor_id;sensor_type;location;lat;lon;timestamp;pressure;altitude;pressure_sealevel;temperature;humidity
54816;BME280;40715;55.752;37.884;2023-04-01T00:01:47;97574.31;;;29.98;25.87
54816;BME280;40715;55.752;37.884;2023-04-01T00:04:14;97571.59;;;29.98;25.76
54816;BME280;40715;55.752;37.884;2023-04-01T00:06:42;97574.09;;;30.00;25.80
54816;BME280;40715;55.752;37.884;2023-04-01T00:09:09;97572.88;;;30.02;25.64
54816;BME280;40715;55.752;37.884;2023-04-01T00:11:37;97571.59;;;29.98;25.78
54816;BME280;40715;55.752;37.884;2023-04-01T00:14:04;97570.13;;;29.95;26.02
54816;BME280;40715;55.752;37.884;2023-04-01T00:16:33;97564.91;;;29.94;25.62
54816;BME280;40715;55.752;37.884;2023-04-01T00:19:00;97567.44;;;29.95;25.79
54816;BME280;40715;55.752;37.884;2023-04-01T00:21:26;97565.78;;;29.94;25.89
54816;BME280;40715;55.752;37.884;2023-04-01T00:23:53;97564.09;;;29.93;25.80
54816;BME280;40715;55.752;37.884;2023-04-01T00:26:20;97564.72;;;29.95;26.06
54816;BME280;40715;55.752;37.884;2023-04-01T00:28:48;97566.59;;;29.95;25.73
54816;BME280;40715;55.752;37.884;2023-04-01T00:31:16;97571.41;;;29.93;25.95
54816;BME280;40715;55.752;37.884;2023-04-01T00:33:43;97564.72;;;29.95;25.97
54816;BME280;40715;55.752;37.884;2023-04-01T00:36:15;97567.03;;;29.92;25.94
54816;BME280;40715;55.752;37.884;2023-04-01T00:38:43;97566.38;;;29.97;25.65
54816;BME280;40715;55.752;37.884;2023-04-01T00:41:11;97567.22;;;29.97;25.76
54816;BME280;40715;55.752;37.884;2023-04-01T00:43:42;97566.19;;;29.98;25.85
54816;BME280;40715;55.752;37.884;2023-04-01T00:46:10;97564.72;;;29.95;25.73
54816;BME280;40715;55.752;37.884;2023-04-01T00:48:40;97561.59;;;29.99;25.78
54816;BME280;40715;55.752;37.884;2023-04-01T00:51:15;97566.41;;;30.03;26.07
54816;BME280;40715;55.752;37.884;2023-04-01T00:53:46;97562.00;;;30.02;25.54
54816;BME280;40715;55.752;37.884;2023-04-01T00:56:24;97550.72;;;30.05;25.69
54816;BME280;40715;55.752;37.884;2023-04-01T00:59:06;97556.78;;;30.07;25.92
54816;BME280;40715;55.752;37.884;2023-04-01T01:01:35;97558.03;;;29.98;25.73
54816;BME280;40715;55.752;37.884;2023-04-01T01:04:02;97557.22;;;29.98;25.79
54816;BME280;40715;55.752;37.884;2023-04-01T01:06:46;97561.38;;;30.07;25.75
54816;BME280;40715;55.752;37.884;2023-04-01T01:12:50;97568.03;;;30.04;25.58
54816;BME280;40715;55.752;37.884;2023-04-01T01:26:52;97560.75;;;30.11;25.72
54816;BME280;40715;55.752;37.884;2023-04-01T01:37:21;97559.28;;;29.95;26.03
54816;BME280;40715;55.752;37.884;2023-04-01T01:40:03;97559.06;;;30.04;26.06
54816;BME280;40715;55.752;37.884;2023-04-01T01:42:32;97550.09;;;29.97;25.88
54816;BME280;40715;55.752;37.884;2023-04-01T01:45:03;97560.97;;;29.97;26.13
54816;BME280;40715;55.752;37.884;2023-04-01T01:47:33;97559.94;;;29.98;25.78
54816;BME280;40715;55.752;37.884;2023-04-01T01:50:02;97562.63;;;29.98;25.79
54816;BME280;40715;55.752;37.884;2023-04-01T01:52:31;97560.75;;;29.98;26.01
54816;BME280;40715;55.752;37.884;2023-04-01T01:54:58;97563.25;;;30.00;26.11
54816;BME280;40715;55.752;37.884;2023-04-01T01:57:33;97562.63;;;29.98;26.07
54816;BME280;40715;55.752;37.884;2023-04-01T02:00:08;97570.56;;;29.99;25.98
54816;BME280;40715;55.752;37.884;2023-04-01T02:02:45;97566.38;;;29.97;25.75
54816;BME280;40715;55.752;37.884;2023-04-01T02:05:17;97572.84;;;29.95;26.13
54816;BME280;40715;55.752;37.884;2023-04-01T02:07:49;97575.78;;;29.94;25.97
54816;BME280;40715;55.752;37.884;2023-04-01T02:10:23;97576.63;;;29.94;25.99
54816;BME280;40715;55.752;37.884;2023-04-01T02:12:53;97573.28;;;29.92;26.00
54816;BME280;40715;55.752;37.884;2023-04-01T02:15:25;97581.41;;;29.92;26.06
54816;BME280;40715;55.752;37.884;2023-04-01T02:17:54;97574.13;;;29.93;25.94
54816;BME280;40715;55.752;37.884;2023-04-01T02:20:24;97583.31;;;29.92;26.02
54816;BME280;40715;55.752;37.884;2023-04-01T02:22:55;97584.34;;;29.91;26.09
54816;BME280;40715;55.752;37.884;2023-04-01T02:25:29;97578.72;;;29.92;25.82
54816;BME280;40715;55.752;37.884;2023-04-01T02:27:59;97585.16;;;29.91;26.07
54816;BME280;40715;55.752;37.884;2023-04-01T02:30:29;97564.50;;;29.84;26.07
54816;BME280;40715;55.752;37.884;2023-04-01T02:32:58;97579.13;;;29.89;26.18
54816;BME280;40715;55.752;37.884;2023-04-01T02:35:26;97584.13;;;29.92;25.81
54816;BME280;40715;55.752;37.884;2023-04-01T02:37:54;97590.59;;;29.91;26.04
54816;BME280;40715;55.752;37.884;2023-04-01T02:40:22;97589.78;;;29.91;25.94
54816;BME280;40715;55.752;37.884;2023-04-01T02:42:49;97593.13;;;29.93;25.95
54816;BME280;40715;55.752;37.884;2023-04-01T02:45:16;97596.03;;;29.91;26.09
54816;BME280;40715;55.752;37.884;2023-04-01T02:47:43;97593.13;;;29.93;25.88
54816;BME280;40715;55.752;37.884;2023-04-01T02:50:10;97591.44;;;29.92;26.00
54816;BME280;40715;55.752;37.884;2023-04-01T02:52:37;97593.31;;;29.91;25.94
54816;BME280;40715;55.752;37.884;2023-04-01T02:55:05;97578.72;;;29.92;26.03
54816;BME280;40715;55.752;37.884;2023-04-01T02:57:34;97579.34;;;29.94;25.75
54816;BME280;40715;55.752;37.884;2023-04-01T03:00:01;97582.88;;;29.95;26.10
54816;BME280;40715;55.752;37.884;2023-04-01T03:02:29;97580.78;;;29.97;25.88
54816;BME280;40715;55.752;37.884;2023-04-01T03:04:56;97590.81;;;29.97;25.90
54816;BME280;40715;55.752;37.884;2023-04-01T03:07:23;97590.22;;;29.94;25.74
54816;BME280;40715;55.752;37.884;2023-04-01T03:09:50;97593.53;;;29.97;25.89
54816;BME280;40715;55.752;37.884;2023-04-01T03:12:17;97591.84;;;29.95;26.12
54816;BME280;40715;55.752;37.884;2023-04-01T03:14:44;97589.34;;;29.94;26.09
54816;BME280;40715;55.752;37.884;2023-04-01T03:17:11;97597.28;;;29.95;25.90
54816;BME280;40715;55.752;37.884;2023-04-01T03:19:38;97594.78;;;29.94;25.67
54816;BME280;40715;55.752;37.884;2023-04-01T03:22:05;97592.28;;;29.92;26.04
54816;BME280;40715;55.752;37.884;2023-04-01T03:24:32;97604.81;;;29.93;25.69
54816;BME280;40715;55.752;37.884;2023-04-01T03:26:58;97608.16;;;29.95;25.92
54816;BME280;40715;55.752;37.884;2023-04-01T03:29:25;97608.34;;;29.94;25.89
54816;BME280;40715;55.752;37.884;2023-04-01T03:31:52;97615.25;;;29.97;25.79
54816;BME280;40715;55.752;37.884;2023-04-01T03:34:19;97592.25;;;29.86;25.54
54816;BME280;40715;55.752;37.884;2023-04-01T03:36:46;97613.38;;;29.97;25.98
54816;BME280;40715;55.752;37.884;2023-04-01T03:39:13;97612.53;;;29.97;25.70
54816;BME280;40715;55.752;37.884;2023-04-01T03:41:40;97617.16;;;29.96;25.64
54816;BME280;40715;55.752;37.884;2023-04-01T03:44:07;97625.09;;;29.98;25.55
54816;BME280;40715;55.752;37.884;2023-04-01T03:46:34;97617.16;;;29.96;25.50
54816;BME280;40715;55.752;37.884;2023-04-01T03:49:01;97616.06;;;29.97;25.62
54816;BME280;40715;55.752;37.884;2023-04-01T03:51:28;97622.38;;;29.98;25.54
54816;BME280;40715;55.752;37.884;2023-04-01T03:53:55;97623.84;;;30.00;25.46
54816;BME280;40715;55.752;37.884;2023-04-01T03:56:22;97617.34;;;30.01;25.41
54816;BME280;40715;55.752;37.884;2023-04-01T03:58:49;97633.41;;;30.03;25.34
54816;BME280;40715;55.752;37.884;2023-04-01T04:01:19;97630.09;;;30.01;25.32
54816;BME280;40715;55.752;37.884;2023-04-01T04:03:48;97634.69;;;30.00;25.48
54816;BME280;40715;55.752;37.884;2023-04-01T04:06:17;97632.81;;;30.01;25.58
54816;BME280;40715;55.752;37.884;2023-04-01T04:08:45;97636.34;;;30.01;25.71
54816;BME280;40715;55.752;37.884;2023-04-01T04:11:13;97649.50;;;30.04;25.40
54816;BME280;40715;55.752;37.884;2023-04-01T04:13:40;97648.88;;;30.02;25.40
54816;BME280;40715;55.752;37.884;2023-04-01T04:16:08;97647.00;;;30.03;25.31
54816;BME280;40715;55.752;37.884;2023-04-01T04:18:36;97653.50;;;30.02;25.53
54816;BME280;40715;55.752;37.884;2023-04-01T04:21:04;97661.22;;;30.05;25.16
54816;BME280;40715;55.752;37.884;2023-04-01T04:23:31;97652.84;;;30.00;25.14
54816;BME280;40715;55.752;37.884;2023-04-01T04:26:08;97659.53;;;30.04;25.38
54816;BME280;40715;55.752;37.884;2023-04-01T04:28:35;97668.53;;;30.11;25.09
54816;BME280;40715;55.752;37.884;2023-04-01T04:31:03;97663.94;;;30.05;25.11
54816;BME280;40715;55.752;37.884;2023-04-01T04:33:32;97669.38;;;30.05;25.23
54816;BME280;40715;55.752;37.884;2023-04-01T04:36:00;97664.97;;;30.04;25.30
54816;BME280;40715;55.752;37.884;2023-04-01T04:38:27;97672.28;;;30.03;25.17
54816;BME280;40715;55.752;37.884;2023-04-01T04:40:55;97675.00;;;30.03;25.31
54816;BME280;40715;55.752;37.884;2023-04-01T04:43:23;97664.13;;;29.97;25.29
54816;BME280;40715;55.752;37.884;2023-04-01T04:45:51;97679.38;;;30.04;25.45
54816;BME280;40715;55.752;37.884;2023-04-01T04:48:18;97684.78;;;30.04;25.64
54816;BME280;40715;55.752;37.884;2023-04-01T04:50:50;97683.16;;;30.03;25.87
54816;BME280;40715;55.752;37.884;2023-04-01T04:53:18;97680.63;;;30.02;26.23
54816;BME280;40715;55.752;37.884;2023-04-01T04:55:49;97684.78;;;30.04;26.54
54816;BME280;40715;55.752;37.884;2023-04-01T04:58:17;97681.25;;;30.04;26.42
54816;BME280;40715;55.752;37.884;2023-04-01T05:00:45;97689.41;;;30.04;26.72
54816;BME280;40715;55.752;37.884;2023-04-01T05:03:12;97692.13;;;30.04;26.86
54816;BME280;40715;55.752;37.884;2023-04-01T05:05:40;97697.34;;;30.05;27.09
54816;BME280;40715;55.752;37.884;2023-04-01T05:08:06;97682.91;;;29.98;26.98
54816;BME280;40715;55.752;37.884;2023-04-01T05:10:33;97699.84;;;30.07;27.16
54816;BME280;40715;55.752;37.884;2023-04-01T05:13:00;97703.22;;;30.09;27.27
54816;BME280;40715;55.752;37.884;2023-04-01T05:15:27;97699.63;;;30.08;27.34
54816;BME280;40715;55.752;37.884;2023-04-01T05:17:54;97693.16;;;30.03;27.65
54816;BME280;40715;55.752;37.884;2023-04-01T05:20:21;97708.63;;;30.09;27.74
54816;BME280;40715;55.752;37.884;2023-04-01T05:22:48;97705.06;;;30.08;27.75
54816;BME280;40715;55.752;37.884;2023-04-01T05:25:15;97702.97;;;30.04;27.73
54816;BME280;40715;55.752;37.884;2023-04-01T05:27:42;97692.31;;;29.95;27.95
54816;BME280;40715;55.752;37.884;2023-04-01T05:30:09;97693.78;;;29.98;28.34
54816;BME280;40715;55.752;37.884;2023-04-01T05:32:37;97702.16;;;30.03;28.10
54816;BME280;40715;55.752;37.884;2023-04-01T05:35:05;97706.94;;;30.01;27.89
54816;BME280;40715;55.752;37.884;2023-04-01T05:37:34;97702.56;;;30.00;28.26
54816;BME280;40715;55.752;37.884;2023-04-01T05:40:02;97700.69;;;30.01;28.20
54816;BME280;40715;55.752;37.884;2023-04-01T05:42:29;97695.66;;;29.98;28.19
54816;BME280;40715;55.752;37.884;2023-04-01T05:44:57;97713.00;;;30.03;28.31
54816;BME280;40715;55.752;37.884;2023-04-01T05:47:24;97714.88;;;30.03;28.23
54816;BME280;40715;55.752;37.884;2023-04-01T05:49:51;97704.63;;;29.98;28.26
54816;BME280;40715;55.752;37.884;2023-04-01T05:52:18;97715.53;;;30.05;28.10
54816;BME280;40715;55.752;37.884;2023-04-01T05:54:45;97720.94;;;30.05;28.33
54816;BME280;40715;55.752;37.884;2023-04-01T05:57:12;97722.81;;;30.04;28.31
54816;BME280;40715;55.752;37.884;2023-04-01T05:59:40;97729.31;;;30.03;28.25
54816;BME280;40715;55.752;37.884;2023-04-01T06:02:08;97728.44;;;30.03;28.71
54816;BME280;40715;55.752;37.884;2023-04-01T06:04:40;97732.84;;;30.04;28.97
54816;BME280;40715;55.752;37.884;2023-04-01T06:07:14;97728.06;;;30.06;28.61
54816;BME280;40715;55.752;37.884;2023-04-01T06:09:43;97734.72;;;30.03;28.77
54816;BME280;40715;55.752;37.884;2023-04-01T06:18:31;97742.69;;;30.11;29.12
54816;BME280;40715;55.752;37.884;2023-04-01T06:21:48;97743.97;;;30.29;28.72
54816;BME280;40715;55.752;37.884;2023-04-01T06:24:35;97747.91;;;30.13;28.81
54816;BME280;40715;55.752;37.884;2023-04-01T06:46:16;97760.31;;;30.69;28.38
54816;BME280;40715;55.752;37.884;2023-04-01T06:54:18;97756.88;;;30.00;29.59
54816;BME280;40715;55.752;37.884;2023-04-01T06:56:53;97758.94;;;29.98;29.64
54816;BME280;40715;55.752;37.884;2023-04-01T06:59:32;97760.16;;;29.95;29.72
54816;BME280;40715;55.752;37.884;2023-04-01T07:04:48;97760.41;;;30.01;29.78
54816;BME280;40715;55.752;37.884;2023-04-01T07:07:43;97764.38;;;29.98;29.72
54816;BME280;40715;55.752;37.884;2023-04-01T07:10:16;97772.09;;;30.01;29.50
54816;BME280;40715;55.752;37.884;2023-04-01T07:12:52;97768.56;;;30.01;29.70
54816;BME280;40715;55.752;37.884;2023-04-01T07:15:35;97777.56;;;30.08;29.74
54816;BME280;40715;55.752;37.884;2023-04-01T07:18:10;97778.81;;;30.12;29.58
54816;BME280;40715;55.752;37.884;2023-04-01T07:20:39;97782.59;;;30.18;29.43
54816;BME280;40715;55.752;37.884;2023-04-01T07:23:15;97783.63;;;30.17;29.73
54816;BME280;40715;55.752;37.884;2023-04-01T07:25:48;97784.06;;;30.20;29.50
54816;BME280;40715;55.752;37.884;2023-04-01T07:28:17;97781.75;;;30.24;29.55
54816;BME280;40715;55.752;37.884;2023-04-01T07:33:49;97782.41;;;30.33;29.47
54816;BME280;40715;55.752;37.884;2023-04-01T07:36:27;97778.03;;;30.38;29.44
54816;BME280;40715;55.752;37.884;2023-04-01T07:39:15;97783.31;;;30.46;29.19
54816;BME280;40715;55.752;37.884;2023-04-01T07:42:14;97776.63;;;30.56;29.17
54816;BME280;40715;55.752;37.884;2023-04-01T07:45:09;97786.88;;;30.60;28.87
54816;BME280;40715;55.752;37.884;2023-04-01T07:48:09;97785.63;;;30.56;29.20
54816;BME280;40715;55.752;37.884;2023-04-01T07:53:36;97796.91;;;30.53;29.13
54816;BME280;40715;55.752;37.884;2023-04-01T07:56:12;97806.53;;;30.56;29.09
54816;BME280;40715;55.752;37.884;2023-04-01T08:01:48;97804.22;;;30.66;28.82
54816;BME280;40715;55.752;37.884;2023-04-01T08:04:46;97811.13;;;30.75;28.70
54816;BME280;40715;55.752;37.884;2023-04-01T08:07:24;97826.59;;;30.68;28.92
54816;BME280;40715;55.752;37.884;2023-04-01T08:15:21;97821.81;;;30.70;28.80
54816;BME280;40715;55.752;37.884;2023-04-01T08:22:58;97834.97;;;30.80;28.62
54816;BME280;40715;55.752;37.884;2023-04-01T08:25:29;97831.84;;;30.76;28.57
54816;BME280;40715;55.752;37.884;2023-04-01T08:28:32;97834.56;;;30.96;28.19
54816;BME280;40715;55.752;37.884;2023-04-01T08:33:36;97833.09;;;30.80;28.84
54816;BME280;40715;55.752;37.884;2023-04-01T08:36:13;97829.53;;;30.87;28.61
54816;BME280;40715;55.752;37.884;2023-04-01T08:38:53;97836.00;;;30.92;28.79
54816;BME280;40715;55.752;37.884;2023-04-01T08:51:30;97833.28;;;30.92;28.48
54816;BME280;40715;55.752;37.884;2023-04-01T08:56:10;97846.69;;;30.87;28.36
54816;BME280;40715;55.752;37.884;2023-04-01T08:59:18;97841.94;;;31.03;28.10
54816;BME280;40715;55.752;37.884;2023-04-01T09:02:30;97850.91;;;31.03;28.40
54816;BME280;40715;55.752;37.884;2023-04-01T09:05:38;97842.94;;;31.08;28.66
54816;BME280;40715;55.752;37.884;2023-04-01T09:11:21;97853.63;;;31.10;28.98
54816;BME280;40715;55.752;37.884;2023-04-01T09:28:10;97876.38;;;30.95;28.70
54816;BME280;40715;55.752;37.884;2023-04-01T09:36:11;97875.19;;;31.05;28.53
54816;BME280;40715;55.752;37.884;2023-04-01T09:38:57;97874.53;;;31.09;28.08
54816;BME280;40715;55.752;37.884;2023-04-01T09:41:36;97874.56;;;31.03;28.37
54816;BME280;40715;55.752;37.884;2023-04-01T09:46:54;97881.81;;;30.95;28.57
54816;BME280;40715;55.752;37.884;2023-04-01T09:49:50;97876.81;;;30.99;28.24
54816;BME280;40715;55.752;37.884;2023-04-01T09:55:44;97876.84;;;31.06;28.73
54816;BME280;40715;55.752;37.884;2023-04-01T10:04:48;97905.09;;;31.25;28.59
54816;BME280;40715;55.752;37.884;2023-04-01T10:18:47;97903.19;;;31.05;28.54
54816;BME280;40715;55.752;37.884;2023-04-01T10:35:23;97916.59;;;31.20;28.62
54816;BME280;40715;55.752;37.884;2023-04-01T10:54:49;97934.59;;;31.28;28.74
54816;BME280;40715;55.752;37.884;2023-04-01T11:01:07;97932.94;;;31.20;28.83
54816;BME280;40715;55.752;37.884;2023-04-01T11:06:50;97938.78;;;31.17;28.78
54816;BME280;40715;55.752;37.884;2023-04-01T11:18:09;97940.03;;;31.28;28.70
54816;BME280;40715;55.752;37.884;2023-04-01T11:34:04;97943.19;;;31.25;28.25
54816;BME280;40715;55.752;37.884;2023-04-01T11:37:02;97945.66;;;31.20;28.40
54816;BME280;40715;55.752;37.884;2023-04-01T11:45:07;97939.19;;;31.21;28.15
54816;BME280;40715;55.752;37.884;2023-04-01T11:53:33;97948.63;;;31.25;27.97
54816;BME280;40715;55.752;37.884;2023-04-01T11:59:08;97944.84;;;31.19;28.09
54816;BME280;40715;55.752;37.884;2023-04-01T12:10:19;97958.88;;;31.29;27.72
54816;BME280;40715;55.752;37.884;2023-04-01T12:12:58;97957.19;;;31.22;27.98
54816;BME280;40715;55.752;37.884;2023-04-01T12:18:32;97969.97;;;31.28;27.61
54816;BME280;40715;55.752;37.884;2023-04-01T12:23:49;97958.88;;;31.23;27.51
54816;BME280;40715;55.752;37.884;2023-04-01T12:32:04;97960.56;;;31.30;27.45
54816;BME280;40715;55.752;37.884;2023-04-01T12:37:27;97955.53;;;31.21;27.06
54816;BME280;40715;55.752;37.884;2023-04-01T12:45:33;97970.81;;;31.22;27.77
54816;BME280;40715;55.752;37.884;2023-04-01T12:48:29;97975.00;;;31.38;27.89
54816;BME280;40715;55.752;37.884;2023-04-01T13:07:42;97999.72;;;31.43;28.93
54816;BME280;40715;55.752;37.884;2023-04-01T13:16:14;97987.56;;;31.32;28.39
54816;BME280;40715;55.752;37.884;2023-04-01T13:21:18;97983.75;;;31.13;28.92
54816;BME280;40715;55.752;37.884;2023-04-01T13:29:43;98010.31;;;31.11;29.05
54816;BME280;40715;55.752;37.884;2023-04-01T13:42:59;98025.34;;;31.00;29.04
54816;BME280;40715;55.752;37.884;2023-04-01T13:57:03;98023.41;;;30.94;29.63
54816;BME280;40715;55.752;37.884;2023-04-01T14:29:00;98058.84;;;31.01;30.37
54816;BME280;40715;55.752;37.884;2023-04-01T14:31:48;98056.56;;;31.04;30.38
54816;BME280;40715;55.752;37.884;2023-04-01T14:34:47;98051.53;;;31.08;30.31
54816;BME280;40715;55.752;37.884;2023-04-01T14:48:39;98067.22;;;31.06;30.01
54816;BME280;40715;55.752;37.884;2023-04-01T14:51:33;98069.56;;;31.15;29.90
54816;BME280;40715;55.752;37.884;2023-04-01T14:57:01;98085.19;;;31.07;29.90
54816;BME280;40715;55.752;37.884;2023-04-01T14:59:30;98084.63;;;31.11;30.23
54816;BME280;40715;55.752;37.884;2023-04-01T15:02:25;98087.97;;;31.20;29.99
54816;BME280;40715;55.752;37.884;2023-04-01T15:08:14;98094.06;;;31.29;30.17
54816;BME280;40715;55.752;37.884;2023-04-01T15:10:59;98096.97;;;31.21;30.25
54816;BME280;40715;55.752;37.884;2023-04-01T15:22:17;98103.72;;;31.38;30.13
54816;BME280;40715;55.752;37.884;2023-04-01T15:28:04;98108.31;;;31.38;29.83
54816;BME280;40715;55.752;37.884;2023-04-01T15:30:48;98109.06;;;31.93;29.16
54816;BME280;40715;55.752;37.884;2023-04-01T15:33:43;98110.84;;;31.39;29.74
54816;BME280;40715;55.752;37.884;2023-04-01T15:39:13;98108.72;;;31.21;29.78
54816;BME280;40715;55.752;37.884;2023-04-01T15:44:39;98109.34;;;31.37;29.95
54816;BME280;40715;55.752;37.884;2023-04-01T15:47:32;98118.38;;;31.37;29.46
54816;BME280;40715;55.752;37.884;2023-04-01T15:50:25;98139.09;;;31.38;29.53
54816;BME280;40715;55.752;37.884;2023-04-01T15:58:52;98147.25;;;31.31;29.48
54816;BME280;40715;55.752;37.884;2023-04-01T16:06:44;98146.59;;;31.29;29.42
54816;BME280;40715;55.752;37.884;2023-04-01T16:09:23;98152.03;;;31.91;28.23
54816;BME280;40715;55.752;37.884;2023-04-01T16:12:04;98150.78;;;31.32;28.93
54816;BME280;40715;55.752;37.884;2023-04-01T16:14:55;98153.28;;;31.27;29.27
54816;BME280;40715;55.752;37.884;2023-04-01T16:20:34;98169.19;;;31.23;29.51
54816;BME280;40715;55.752;37.884;2023-04-01T16:26:01;98169.59;;;31.27;29.84
54816;BME280;40715;55.752;37.884;2023-04-01T16:28:48;98179.84;;;31.25;29.73
54816;BME280;40715;55.752;37.884;2023-04-01T16:31:38;98181.97;;;31.29;29.76
54816;BME280;40715;55.752;37.884;2023-04-01T16:34:26;98181.75;;;31.31;29.84
54816;BME280;40715;55.752;37.884;2023-04-01T16:37:07;98185.75;;;31.28;29.75
54816;BME280;40715;55.752;37.884;2023-04-01T16:39:52;98191.41;;;31.33;30.09
54816;BME280;40715;55.752;37.884;2023-04-01T16:50:19;98190.13;;;31.29;30.42
54816;BME280;40715;55.752;37.884;2023-04-01T16:55:41;98189.72;;;31.32;30.79
54816;BME280;40715;55.752;37.884;2023-04-01T16:58:18;98201.47;;;31.33;31.13
54816;BME280;40715;55.752;37.884;2023-04-01T17:00:53;98200.63;;;31.39;30.69
54816;BME280;40715;55.752;37.884;2023-04-01T17:03:31;98189.13;;;31.37;30.86
54816;BME280;40715;55.752;37.884;2023-04-01T17:09:25;98203.56;;;31.38;31.32
54816;BME280;40715;55.752;37.884;2023-04-01T17:14:54;98207.31;;;31.30;31.04
54816;BME280;40715;55.752;37.884;2023-04-01T17:23:04;98219.25;;;31.36;30.27
54816;BME280;40715;55.752;37.884;2023-04-01T17:47:52;98217.53;;;31.21;27.95
54816;BME280;40715;55.752;37.884;2023-04-01T17:53:56;98221.78;;;31.37;28.19
54816;BME280;40715;55.752;37.884;2023-04-01T17:59:36;98222.72;;;31.16;28.49
54816;BME280;40715;55.752;37.884;2023-04-01T18:02:06;98226.47;;;31.15;28.49
54816;BME280;40715;55.752;37.884;2023-04-01T18:18:30;98251.97;;;31.07;28.38
54816;BME280;40715;55.752;37.884;2023-04-01T18:24:06;98252.41;;;31.11;27.75
54816;BME280;40715;55.752;37.884;2023-04-01T18:26:41;98244.53;;;30.94;27.72
54816;BME280;40715;55.752;37.884;2023-04-01T18:29:34;98249.09;;;31.15;27.84
54816;BME280;40715;55.752;37.884;2023-04-01T18:32:15;98245.03;;;31.05;27.87
54816;BME280;40715;55.752;37.884;2023-04-01T18:35:12;98256.91;;;30.97;27.80
54816;BME280;40715;55.752;37.884;2023-04-01T18:40:24;98252.69;;;30.94;27.54
54816;BME280;40715;55.752;37.884;2023-04-01T18:46:17;98263.47;;;31.03;27.41
54816;BME280;40715;55.752;37.884;2023-04-01T18:51:55;98256.25;;;30.95;26.89
54816;BME280;40715;55.752;37.884;2023-04-01T18:54:30;98279.22;;;30.92;26.95
54816;BME280;40715;55.752;37.884;2023-04-01T18:57:07;98284.88;;;30.91;26.96
54816;BME280;40715;55.752;37.884;2023-04-01T18:59:42;98269.41;;;30.91;26.86
54816;BME280;40715;55.752;37.884;2023-04-01T19:02:35;98280.81;;;31.02;26.87
54816;BME280;40715;55.752;37.884;2023-04-01T19:05:35;98283.13;;;31.05;26.33
54816;BME280;40715;55.752;37.884;2023-04-01T19:19:34;98283.91;;;30.98;26.21
54816;BME280;40715;55.752;37.884;2023-04-01T19:27:48;98298.88;;;30.88;26.49
54816;BME280;40715;55.752;37.884;2023-04-01T19:51:56;98319.63;;;30.95;26.87
54816;BME280;40715;55.752;37.884;2023-04-01T19:54:27;98308.94;;;30.94;26.56
54816;BME280;40715;55.752;37.884;2023-04-01T19:57:08;98307.31;;;30.99;26.59
54816;BME280;40715;55.752;37.884;2023-04-01T19:59:58;98309.81;;;30.94;26.82
54816;BME280;40715;55.752;37.884;2023-04-01T20:05:39;98312.00;;;31.06;26.97
54816;BME280;40715;55.752;37.884;2023-04-01T20:08:38;98327.06;;;31.08;26.87
54816;BME280;40715;55.752;37.884;2023-04-01T20:14:18;98322.44;;;31.02;26.90
54816;BME280;40715;55.752;37.884;2023-04-01T20:19:29;98327.66;;;31.04;27.06
54816;BME280;40715;55.752;37.884;2023-04-01T20:22:02;98327.41;;;30.98;26.69
54816;BME280;40715;55.752;37.884;2023-04-01T20:24:36;98332.84;;;30.98;26.88
54816;BME280;40715;55.752;37.884;2023-04-01T20:30:21;98340.09;;;31.13;26.67
54816;BME280;40715;55.752;37.884;2023-04-01T20:36:14;98335.34;;;31.22;26.53
54816;BME280;40715;55.752;37.884;2023-04-01T20:41:44;98326.00;;;31.03;26.57
54816;BME280;40715;55.752;37.884;2023-04-01T20:50:24;98323.78;;;31.20;26.78
54816;BME280;40715;55.752;37.884;2023-04-01T21:09:49;98326.28;;;31.14;26.74
54816;BME280;40715;55.752;37.884;2023-04-01T21:12:34;98329.63;;;31.10;26.42
54816;BME280;40715;55.752;37.884;2023-04-01T21:15:38;98331.34;;;31.18;26.65
54816;BME280;40715;55.752;37.884;2023-04-01T21:18:26;98328.13;;;31.07;26.76
54816;BME280;40715;55.752;37.884;2023-04-01T21:29:57;98339.69;;;31.16;26.65
54816;BME280;40715;55.752;37.884;2023-04-01T21:39:13;98346.56;;;31.12;26.69
54816;BME280;40715;55.752;37.884;2023-04-01T21:41:55;98357.03;;;31.15;26.62
54816;BME280;40715;55.752;37.884;2023-04-01T22:07:23;98363.94;;;30.89;26.58
54816;BME280;40715;55.752;37.884;2023-04-01T22:10:03;98383.16;;;30.88;27.11
54816;BME280;40715;55.752;37.884;2023-04-01T22:18:29;98369.75;;;30.86;26.94
54816;BME280;40715;55.752;37.884;2023-04-01T22:23:45;98366.25;;;30.92;26.62
54816;BME280;40715;55.752;37.884;2023-04-01T22:26:35;98365.28;;;31.00;26.81
54816;BME280;40715;55.752;37.884;2023-04-01T22:29:10;98373.31;;;30.87;26.95
54816;BME280;40715;55.752;37.884;2023-04-01T22:31:48;98363.84;;;30.83;26.58
54816;BME280;40715;55.752;37.884;2023-04-01T22:42:58;98365.41;;;30.92;26.95
54816;BME280;40715;55.752;37.884;2023-04-01T22:49:20;98379.59;;;30.87;26.97
54816;BME280;40715;55.752;37.884;2023-04-01T22:52:03;98378.72;;;31.02;26.92
54816;BME280;40715;55.752;37.884;2023-04-01T22:54:53;98385.19;;;31.01;26.78
54816;BME280;40715;55.752;37.884;2023-04-01T23:02:58;98369.09;;;30.84;26.97
54816;BME280;40715;55.752;37.884;2023-04-01T23:05:26;98381.81;;;31.55;26.22
54816;BME280;40715;55.752;37.884;2023-04-01T23:08:04;98381.72;;;30.92;27.36
54816;BME280;40715;55.752;37.884;2023-04-01T23:10:55;98379.22;;;30.90;27.19
54816;BME280;40715;55.752;37.884;2023-04-01T23:13:27;98387.69;;;30.80;27.56
54816;BME280;40715;55.752;37.884;2023-04-01T23:15:56;98391.25;;;30.81;27.58
54816;BME280;40715;55.752;37.884;2023-04-01T23:29:37;98395.72;;;30.89;27.54
54816;BME280;40715;55.752;37.884;2023-04-01T23:32:17;98389.22;;;30.90;27.99
54816;BME280;40715;55.752;37.884;2023-04-01T23:34:49;98388.78;;;30.86;27.92
54816;BME280;40715;55.752;37.884;2023-04-01T23:37:19;98394.03;;;30.88;27.62